Max, Minnesota
Current Conditions -  °F | °C
As of 1:33 PM on Thursday 30 Oct 2014 (Local Time) from KFOZ Reporting Station
Broken Clouds Broken Clouds  
Wind Chill: 34°   Ceiling: 3500
Heat Index: 39°   Visibility: 10mi
Dew Point: 30°   Wind: 7mph
Humidity: 70%   Direction: 320°NW
Pressure: 30.14"   Gusts: NA
Location:  47.61°N, 94.07°W
Report Text: KFOZ 301833Z AUTO 32006KT 10SM BKN035 04/M01 A3014 RMK AO2
Loading
Personal Weather Stations






























Interactive Weather Map
Tropical Storm Tracking
New forecast layout! Learn more

10-Day Weather Forecast

Advertisements
Track Severe Weather on mobile